sensor_id;sensor_type;location;lat;lon;timestamp;P1;durP1;ratioP1;P2;durP2;ratioP2
70967;SDS011;58629;48.808;8.820;2023-05-23T00:00:54;36.05;;;19.08;;
70967;SDS011;58629;48.808;8.820;2023-05-23T00:03:19;34.37;;;18.47;;
70967;SDS011;58629;48.808;8.820;2023-05-23T00:05:46;39.50;;;20.33;;
70967;SDS011;58629;48.808;8.820;2023-05-23T00:08:14;42.83;;;20.17;;
70967;SDS011;58629;48.808;8.820;2023-05-23T00:10:40;44.78;;;22.00;;
70967;SDS011;58629;48.808;8.820;2023-05-23T00:13:05;47.05;;;22.63;;
70967;SDS011;58629;48.808;8.820;2023-05-23T00:15:33;53.83;;;24.43;;
70967;SDS011;58629;48.808;8.820;2023-05-23T00:18:01;56.40;;;25.08;;
70967;SDS011;58629;48.808;8.820;2023-05-23T00:20:26;52.72;;;24.83;;
70967;SDS011;58629;48.808;8.820;2023-05-23T00:22:52;48.00;;;23.40;;
70967;SDS011;58629;48.808;8.820;2023-05-23T00:25:18;48.50;;;23.88;;
70967;SDS011;58629;48.808;8.820;2023-05-23T00:27:45;47.53;;;23.23;;
70967;SDS011;58629;48.808;8.820;2023-05-23T00:30:11;46.97;;;22.80;;
70967;SDS011;58629;48.808;8.820;2023-05-23T00:32:36;47.20;;;22.80;;
70967;SDS011;58629;48.808;8.820;2023-05-23T00:35:01;43.77;;;22.07;;
70967;SDS011;58629;48.808;8.820;2023-05-23T00:37:28;47.50;;;22.17;;
70967;SDS011;58629;48.808;8.820;2023-05-23T00:39:53;48.87;;;23.10;;
70967;SDS011;58629;48.808;8.820;2023-05-23T00:42:18;52.83;;;24.23;;
70967;SDS011;58629;48.808;8.820;2023-05-23T00:44:44;49.23;;;23.23;;
70967;SDS011;58629;48.808;8.820;2023-05-23T00:47:09;51.43;;;24.83;;
70967;SDS011;58629;48.808;8.820;2023-05-23T00:49:37;50.58;;;24.90;;
70967;SDS011;58629;48.808;8.820;2023-05-23T00:52:03;52.83;;;24.83;;
70967;SDS011;58629;48.808;8.820;2023-05-23T00:54:29;56.95;;;25.45;;
70967;SDS011;58629;48.808;8.820;2023-05-23T00:56:57;55.08;;;25.40;;
70967;SDS011;58629;48.808;8.820;2023-05-23T00:59:23;58.72;;;26.58;;
70967;SDS011;58629;48.808;8.820;2023-05-23T01:01:49;58.47;;;27.17;;
70967;SDS011;58629;48.808;8.820;2023-05-23T01:04:16;59.70;;;27.55;;
70967;SDS011;58629;48.808;8.820;2023-05-23T01:06:44;70.17;;;29.30;;
70967;SDS011;58629;48.808;8.820;2023-05-23T01:09:11;65.97;;;29.30;;
70967;SDS011;58629;48.808;8.820;2023-05-23T01:12:39;68.30;;;29.45;;
70967;SDS011;58629;48.808;8.820;2023-05-23T01:14:55;58.70;;;26.42;;
70967;SDS011;58629;48.808;8.820;2023-05-23T01:17:28;61.35;;;28.23;;
70967;SDS011;58629;48.808;8.820;2023-05-23T01:20:02;61.57;;;28.27;;
70967;SDS011;58629;48.808;8.820;2023-05-23T01:28:11;63.88;;;30.13;;
70967;SDS011;58629;48.808;8.820;2023-05-23T01:30:40;65.22;;;30.58;;
70967;SDS011;58629;48.808;8.820;2023-05-23T01:33:09;67.50;;;30.17;;
70967;SDS011;58629;48.808;8.820;2023-05-23T01:35:37;65.18;;;30.92;;
70967;SDS011;58629;48.808;8.820;2023-05-23T01:38:03;66.80;;;30.90;;
70967;SDS011;58629;48.808;8.820;2023-05-23T01:40:29;63.57;;;29.37;;
70967;SDS011;58629;48.808;8.820;2023-05-23T01:42:54;71.13;;;30.67;;
70967;SDS011;58629;48.808;8.820;2023-05-23T01:45:25;66.97;;;30.65;;
70967;SDS011;58629;48.808;8.820;2023-05-23T01:47:52;69.57;;;31.80;;
70967;SDS011;58629;48.808;8.820;2023-05-23T01:50:18;71.32;;;31.90;;
70967;SDS011;58629;48.808;8.820;2023-05-23T01:52:43;65.73;;;30.57;;
70967;SDS011;58629;48.808;8.820;2023-05-23T01:55:10;71.82;;;31.58;;
70967;SDS011;58629;48.808;8.820;2023-05-23T01:57:39;68.30;;;31.23;;
70967;SDS011;58629;48.808;8.820;2023-05-23T02:00:05;68.37;;;31.47;;
70967;SDS011;58629;48.808;8.820;2023-05-23T02:02:31;68.82;;;31.17;;
70967;SDS011;58629;48.808;8.820;2023-05-23T02:04:58;69.82;;;31.95;;
70967;SDS011;58629;48.808;8.820;2023-05-23T02:07:23;70.63;;;30.90;;
70967;SDS011;58629;48.808;8.820;2023-05-23T02:09:49;62.27;;;29.70;;
70967;SDS011;58629;48.808;8.820;2023-05-23T02:12:14;66.43;;;31.03;;
70967;SDS011;58629;48.808;8.820;2023-05-23T02:14:39;68.28;;;32.40;;
70967;SDS011;58629;48.808;8.820;2023-05-23T02:17:06;64.73;;;30.57;;
70967;SDS011;58629;48.808;8.820;2023-05-23T02:19:34;67.55;;;31.17;;
70967;SDS011;58629;48.808;8.820;2023-05-23T02:21:59;65.18;;;31.50;;
70967;SDS011;58629;48.808;8.820;2023-05-23T02:24:25;64.10;;;30.13;;
70967;SDS011;58629;48.808;8.820;2023-05-23T02:26:50;64.63;;;30.03;;
70967;SDS011;58629;48.808;8.820;2023-05-23T02:29:16;62.58;;;30.33;;
70967;SDS011;58629;48.808;8.820;2023-05-23T02:31:42;66.70;;;31.70;;
70967;SDS011;58629;48.808;8.820;2023-05-23T02:34:07;64.13;;;30.30;;
70967;SDS011;58629;48.808;8.820;2023-05-23T02:36:32;63.57;;;30.47;;
70967;SDS011;58629;48.808;8.820;2023-05-23T02:38:58;62.93;;;30.87;;
70967;SDS011;58629;48.808;8.820;2023-05-23T02:41:23;63.67;;;30.00;;
70967;SDS011;58629;48.808;8.820;2023-05-23T02:43:48;70.63;;;32.83;;
70967;SDS011;58629;48.808;8.820;2023-05-23T02:46:14;62.00;;;30.20;;
70967;SDS011;58629;48.808;8.820;2023-05-23T02:48:39;64.72;;;31.75;;
70967;SDS011;58629;48.808;8.820;2023-05-23T02:51:04;66.40;;;32.33;;
70967;SDS011;58629;48.808;8.820;2023-05-23T02:53:30;61.33;;;31.30;;
70967;SDS011;58629;48.808;8.820;2023-05-23T02:55:55;65.70;;;30.83;;
70967;SDS011;58629;48.808;8.820;2023-05-23T02:58:21;59.77;;;30.20;;
70967;SDS011;58629;48.808;8.820;2023-05-23T03:00:46;59.47;;;30.43;;
70967;SDS011;58629;48.808;8.820;2023-05-23T03:03:11;63.85;;;29.98;;
70967;SDS011;58629;48.808;8.820;2023-05-23T03:05:37;59.37;;;30.23;;
70967;SDS011;58629;48.808;8.820;2023-05-23T03:08:02;61.73;;;31.83;;
70967;SDS011;58629;48.808;8.820;2023-05-23T03:10:27;59.93;;;30.00;;
70967;SDS011;58629;48.808;8.820;2023-05-23T03:12:52;57.80;;;29.77;;
70967;SDS011;58629;48.808;8.820;2023-05-23T03:15:18;62.80;;;30.90;;
70967;SDS011;58629;48.808;8.820;2023-05-23T03:17:43;59.00;;;29.50;;
70967;SDS011;58629;48.808;8.820;2023-05-23T03:20:09;56.87;;;28.60;;
70967;SDS011;58629;48.808;8.820;2023-05-23T03:22:35;62.97;;;30.27;;
70967;SDS011;58629;48.808;8.820;2023-05-23T03:25:00;61.67;;;29.53;;
70967;SDS011;58629;48.808;8.820;2023-05-23T03:27:26;57.17;;;28.55;;
70967;SDS011;58629;48.808;8.820;2023-05-23T03:29:51;58.13;;;28.87;;
70967;SDS011;58629;48.808;8.820;2023-05-23T03:32:16;61.63;;;29.67;;
70967;SDS011;58629;48.808;8.820;2023-05-23T03:34:42;55.07;;;28.80;;
70967;SDS011;58629;48.808;8.820;2023-05-23T03:37:07;59.37;;;29.10;;
70967;SDS011;58629;48.808;8.820;2023-05-23T03:39:32;59.37;;;28.63;;
70967;SDS011;58629;48.808;8.820;2023-05-23T03:41:57;55.67;;;27.93;;
70967;SDS011;58629;48.808;8.820;2023-05-23T03:44:23;55.70;;;28.50;;
70967;SDS011;58629;48.808;8.820;2023-05-23T03:46:48;57.70;;;29.03;;
70967;SDS011;58629;48.808;8.820;2023-05-23T03:49:13;55.38;;;28.00;;
70967;SDS011;58629;48.808;8.820;2023-05-23T03:51:39;60.78;;;29.08;;
70967;SDS011;58629;48.808;8.820;2023-05-23T03:54:04;53.13;;;28.37;;
70967;SDS011;58629;48.808;8.820;2023-05-23T03:56:30;57.53;;;29.33;;
70967;SDS011;58629;48.808;8.820;2023-05-23T03:58:55;56.50;;;28.77;;
70967;SDS011;58629;48.808;8.820;2023-05-23T04:01:21;52.72;;;29.08;;
70967;SDS011;58629;48.808;8.820;2023-05-23T04:03:46;55.80;;;28.53;;
70967;SDS011;58629;48.808;8.820;2023-05-23T04:06:12;58.03;;;29.17;;
70967;SDS011;58629;48.808;8.820;2023-05-23T04:08:37;54.47;;;29.23;;
70967;SDS011;58629;48.808;8.820;2023-05-23T04:11:05;57.58;;;28.80;;
70967;SDS011;58629;48.808;8.820;2023-05-23T04:13:31;57.70;;;29.40;;
70967;SDS011;58629;48.808;8.820;2023-05-23T04:15:58;59.20;;;30.50;;
70967;SDS011;58629;48.808;8.820;2023-05-23T04:18:25;58.00;;;28.50;;
70967;SDS011;58629;48.808;8.820;2023-05-23T04:20:50;59.17;;;30.83;;
70967;SDS011;58629;48.808;8.820;2023-05-23T04:23:16;57.77;;;29.93;;
70967;SDS011;58629;48.808;8.820;2023-05-23T04:25:41;59.07;;;30.43;;
70967;SDS011;58629;48.808;8.820;2023-05-23T04:28:06;63.77;;;32.70;;
70967;SDS011;58629;48.808;8.820;2023-05-23T04:30:34;63.75;;;32.47;;
70967;SDS011;58629;48.808;8.820;2023-05-23T04:33:00;65.63;;;32.47;;
70967;SDS011;58629;48.808;8.820;2023-05-23T04:35:25;61.53;;;31.73;;
70967;SDS011;58629;48.808;8.820;2023-05-23T04:37:56;63.88;;;33.95;;
70967;SDS011;58629;48.808;8.820;2023-05-23T04:40:22;64.43;;;34.08;;
70967;SDS011;58629;48.808;8.820;2023-05-23T04:42:48;62.83;;;32.33;;
70967;SDS011;58629;48.808;8.820;2023-05-23T04:45:14;64.78;;;34.03;;
70967;SDS011;58629;48.808;8.820;2023-05-23T04:47:39;68.53;;;33.90;;
70967;SDS011;58629;48.808;8.820;2023-05-23T04:50:05;67.82;;;32.92;;
70967;SDS011;58629;48.808;8.820;2023-05-23T04:52:31;65.07;;;34.13;;
70967;SDS011;58629;48.808;8.820;2023-05-23T04:54:58;62.73;;;33.50;;
70967;SDS011;58629;48.808;8.820;2023-05-23T04:57:24;66.95;;;33.92;;
70967;SDS011;58629;48.808;8.820;2023-05-23T04:59:49;63.33;;;32.87;;
70967;SDS011;58629;48.808;8.820;2023-05-23T05:02:14;61.33;;;32.43;;
70967;SDS011;58629;48.808;8.820;2023-05-23T05:04:40;65.28;;;32.65;;
70967;SDS011;58629;48.808;8.820;2023-05-23T05:07:05;62.03;;;33.47;;
70967;SDS011;58629;48.808;8.820;2023-05-23T05:09:30;61.70;;;33.70;;
70967;SDS011;58629;48.808;8.820;2023-05-23T05:11:56;60.13;;;32.47;;
70967;SDS011;58629;48.808;8.820;2023-05-23T05:14:22;63.80;;;32.33;;
70967;SDS011;58629;48.808;8.820;2023-05-23T05:16:47;64.20;;;32.93;;
70967;SDS011;58629;48.808;8.820;2023-05-23T05:19:14;61.60;;;32.45;;
70967;SDS011;58629;48.808;8.820;2023-05-23T05:21:40;61.20;;;33.03;;
70967;SDS011;58629;48.808;8.820;2023-05-23T05:24:05;62.53;;;32.80;;
70967;SDS011;58629;48.808;8.820;2023-05-23T05:26:33;60.95;;;32.20;;
70967;SDS011;58629;48.808;8.820;2023-05-23T05:28:59;59.00;;;32.03;;
70967;SDS011;58629;48.808;8.820;2023-05-23T05:31:24;57.10;;;31.07;;
70967;SDS011;58629;48.808;8.820;2023-05-23T05:33:49;64.33;;;33.70;;
70967;SDS011;58629;48.808;8.820;2023-05-23T05:36:15;56.53;;;31.57;;
70967;SDS011;58629;48.808;8.820;2023-05-23T05:38:40;58.67;;;31.17;;
70967;SDS011;58629;48.808;8.820;2023-05-23T05:41:05;58.20;;;32.40;;
70967;SDS011;58629;48.808;8.820;2023-05-23T05:43:31;59.65;;;31.17;;
70967;SDS011;58629;48.808;8.820;2023-05-23T05:45:56;59.07;;;31.57;;
70967;SDS011;58629;48.808;8.820;2023-05-23T05:48:21;56.17;;;30.67;;
70967;SDS011;58629;48.808;8.820;2023-05-23T05:50:47;61.70;;;32.80;;
70967;SDS011;58629;48.808;8.820;2023-05-23T05:53:12;56.33;;;30.80;;
70967;SDS011;58629;48.808;8.820;2023-05-23T05:55:37;58.43;;;30.10;;
70967;SDS011;58629;48.808;8.820;2023-05-23T05:58:03;50.80;;;29.43;;
70967;SDS011;58629;48.808;8.820;2023-05-23T06:00:28;50.42;;;28.73;;
70967;SDS011;58629;48.808;8.820;2023-05-23T06:02:54;52.77;;;29.43;;
70967;SDS011;58629;48.808;8.820;2023-05-23T06:05:21;48.80;;;28.50;;
70967;SDS011;58629;48.808;8.820;2023-05-23T06:07:47;49.53;;;28.35;;
70967;SDS011;58629;48.808;8.820;2023-05-23T06:10:14;50.70;;;29.15;;
70967;SDS011;58629;48.808;8.820;2023-05-23T06:12:39;50.07;;;28.20;;
70967;SDS011;58629;48.808;8.820;2023-05-23T06:15:05;48.60;;;27.77;;
70967;SDS011;58629;48.808;8.820;2023-05-23T06:17:31;48.92;;;28.88;;
70967;SDS011;58629;48.808;8.820;2023-05-23T06:19:56;49.43;;;27.73;;
70967;SDS011;58629;48.808;8.820;2023-05-23T06:22:21;50.03;;;27.67;;
70967;SDS011;58629;48.808;8.820;2023-05-23T06:24:47;47.33;;;27.43;;
70967;SDS011;58629;48.808;8.820;2023-05-23T06:27:12;46.67;;;26.17;;
70967;SDS011;58629;48.808;8.820;2023-05-23T06:29:37;47.10;;;26.30;;
70967;SDS011;58629;48.808;8.820;2023-05-23T06:32:03;47.60;;;26.27;;
70967;SDS011;58629;48.808;8.820;2023-05-23T06:34:29;49.08;;;26.80;;
70967;SDS011;58629;48.808;8.820;2023-05-23T06:36:54;45.92;;;26.35;;
70967;SDS011;58629;48.808;8.820;2023-05-23T06:39:19;41.97;;;25.17;;
70967;SDS011;58629;48.808;8.820;2023-05-23T06:41:45;41.57;;;24.47;;
70967;SDS011;58629;48.808;8.820;2023-05-23T06:44:11;44.50;;;24.67;;
70967;SDS011;58629;48.808;8.820;2023-05-23T06:46:36;42.30;;;24.53;;
70967;SDS011;58629;48.808;8.820;2023-05-23T06:49:01;41.20;;;24.73;;
70967;SDS011;58629;48.808;8.820;2023-05-23T06:51:27;41.63;;;24.27;;
70967;SDS011;58629;48.808;8.820;2023-05-23T06:53:52;42.43;;;24.93;;
70967;SDS011;58629;48.808;8.820;2023-05-23T06:56:17;38.53;;;23.03;;
70967;SDS011;58629;48.808;8.820;2023-05-23T06:58:42;36.27;;;22.30;;
70967;SDS011;58629;48.808;8.820;2023-05-23T07:01:08;32.90;;;21.07;;
70967;SDS011;58629;48.808;8.820;2023-05-23T07:03:34;33.58;;;21.05;;
70967;SDS011;58629;48.808;8.820;2023-05-23T07:06:02;36.60;;;21.10;;
70967;SDS011;58629;48.808;8.820;2023-05-23T07:08:28;38.07;;;22.07;;
70967;SDS011;58629;48.808;8.820;2023-05-23T07:10:53;38.37;;;22.20;;
70967;SDS011;58629;48.808;8.820;2023-05-23T07:13:18;37.83;;;22.10;;
70967;SDS011;58629;48.808;8.820;2023-05-23T07:15:43;37.37;;;21.67;;
70967;SDS011;58629;48.808;8.820;2023-05-23T07:18:09;36.15;;;21.75;;
70967;SDS011;58629;48.808;8.820;2023-05-23T07:20:35;36.35;;;22.10;;
70967;SDS011;58629;48.808;8.820;2023-05-23T07:23:00;36.40;;;20.83;;
70967;SDS011;58629;48.808;8.820;2023-05-23T07:25:26;36.63;;;21.40;;
70967;SDS011;58629;48.808;8.820;2023-05-23T07:27:51;39.40;;;22.97;;
70967;SDS011;58629;48.808;8.820;2023-05-23T07:30:18;36.25;;;21.52;;
70967;SDS011;58629;48.808;8.820;2023-05-23T07:32:45;36.08;;;21.83;;
70967;SDS011;58629;48.808;8.820;2023-05-23T07:35:11;36.80;;;21.05;;
70967;SDS011;58629;48.808;8.820;2023-05-23T07:37:37;33.90;;;20.60;;
70967;SDS011;58629;48.808;8.820;2023-05-23T07:40:03;33.60;;;20.13;;
70967;SDS011;58629;48.808;8.820;2023-05-23T07:42:29;34.10;;;19.83;;
70967;SDS011;58629;48.808;8.820;2023-05-23T07:44:54;30.20;;;19.33;;
70967;SDS011;58629;48.808;8.820;2023-05-23T07:47:19;28.20;;;18.67;;
70967;SDS011;58629;48.808;8.820;2023-05-23T07:49:45;31.53;;;19.60;;
70967;SDS011;58629;48.808;8.820;2023-05-23T07:52:11;30.52;;;18.67;;
70967;SDS011;58629;48.808;8.820;2023-05-23T07:54:36;30.13;;;18.90;;
70967;SDS011;58629;48.808;8.820;2023-05-23T07:57:02;30.27;;;18.27;;
70967;SDS011;58629;48.808;8.820;2023-05-23T07:59:27;28.60;;;17.80;;
70967;SDS011;58629;48.808;8.820;2023-05-23T08:01:54;28.38;;;17.40;;
70967;SDS011;58629;48.808;8.820;2023-05-23T08:04:19;27.80;;;18.27;;
70967;SDS011;58629;48.808;8.820;2023-05-23T08:06:45;31.23;;;18.10;;
70967;SDS011;58629;48.808;8.820;2023-05-23T08:09:11;28.60;;;17.42;;
70967;SDS011;58629;48.808;8.820;2023-05-23T08:11:36;27.98;;;17.60;;
70967;SDS011;58629;48.808;8.820;2023-05-23T08:14:02;27.83;;;17.30;;
70967;SDS011;58629;48.808;8.820;2023-05-23T08:16:27;26.87;;;17.73;;
70967;SDS011;58629;48.808;8.820;2023-05-23T08:18:52;25.97;;;17.57;;
70967;SDS011;58629;48.808;8.820;2023-05-23T08:21:17;28.27;;;17.27;;
70967;SDS011;58629;48.808;8.820;2023-05-23T08:23:43;29.83;;;18.13;;
70967;SDS011;58629;48.808;8.820;2023-05-23T08:26:08;30.10;;;17.63;;
70967;SDS011;58629;48.808;8.820;2023-05-23T08:28:33;27.90;;;17.70;;
70967;SDS011;58629;48.808;8.820;2023-05-23T08:30:59;27.73;;;17.67;;
70967;SDS011;58629;48.808;8.820;2023-05-23T08:33:24;29.67;;;17.10;;
70967;SDS011;58629;48.808;8.820;2023-05-23T08:35:50;26.77;;;17.17;;
70967;SDS011;58629;48.808;8.820;2023-05-23T08:38:16;26.70;;;16.90;;
70967;SDS011;58629;48.808;8.820;2023-05-23T08:40:42;26.58;;;17.13;;
70967;SDS011;58629;48.808;8.820;2023-05-23T08:43:13;25.95;;;16.13;;
70967;SDS011;58629;48.808;8.820;2023-05-23T08:45:38;26.87;;;16.47;;
70967;SDS011;58629;48.808;8.820;2023-05-23T08:48:06;25.55;;;16.23;;
70967;SDS011;58629;48.808;8.820;2023-05-23T08:50:34;24.08;;;15.57;;
70967;SDS011;58629;48.808;8.820;2023-05-23T08:53:01;26.13;;;15.75;;
70967;SDS011;58629;48.808;8.820;2023-05-23T08:55:28;25.38;;;15.93;;
70967;SDS011;58629;48.808;8.820;2023-05-23T08:57:54;23.95;;;15.77;;
70967;SDS011;58629;48.808;8.820;2023-05-23T09:00:21;23.77;;;15.45;;
70967;SDS011;58629;48.808;8.820;2023-05-23T09:02:49;22.95;;;15.57;;
70967;SDS011;58629;48.808;8.820;2023-05-23T09:05:15;22.30;;;14.60;;
70967;SDS011;58629;48.808;8.820;2023-05-23T09:07:41;24.02;;;15.05;;
70967;SDS011;58629;48.808;8.820;2023-05-23T09:10:13;24.70;;;15.27;;
70967;SDS011;58629;48.808;8.820;2023-05-23T09:12:44;25.55;;;15.43;;
70967;SDS011;58629;48.808;8.820;2023-05-23T09:15:09;23.58;;;14.95;;
70967;SDS011;58629;48.808;8.820;2023-05-23T09:17:36;20.50;;;13.87;;
70967;SDS011;58629;48.808;8.820;2023-05-23T09:20:09;20.83;;;14.48;;
70967;SDS011;58629;48.808;8.820;2023-05-23T09:22:39;20.00;;;13.98;;
70967;SDS011;58629;48.808;8.820;2023-05-23T09:25:05;20.30;;;13.67;;
70967;SDS011;58629;48.808;8.820;2023-05-23T09:27:31;20.98;;;13.50;;
70967;SDS011;58629;48.808;8.820;2023-05-23T09:29:56;21.53;;;14.23;;
70967;SDS011;58629;48.808;8.820;2023-05-23T09:32:22;20.10;;;13.30;;
70967;SDS011;58629;48.808;8.820;2023-05-23T09:34:54;20.27;;;13.35;;
70967;SDS011;58629;48.808;8.820;2023-05-23T09:37:27;19.83;;;13.15;;
70967;SDS011;58629;48.808;8.820;2023-05-23T09:39:59;19.67;;;13.82;;
70967;SDS011;58629;48.808;8.820;2023-05-23T09:42:32;18.80;;;13.13;;
70967;SDS011;58629;48.808;8.820;2023-05-23T09:44:58;20.00;;;13.38;;
70967;SDS011;58629;48.808;8.820;2023-05-23T09:47:23;17.93;;;12.80;;
70967;SDS011;58629;48.808;8.820;2023-05-23T09:49:50;17.42;;;12.50;;
70967;SDS011;58629;48.808;8.820;2023-05-23T09:52:15;18.50;;;12.87;;
70967;SDS011;58629;48.808;8.820;2023-05-23T09:54:41;17.85;;;12.63;;
70967;SDS011;58629;48.808;8.820;2023-05-23T09:57:08;18.15;;;12.43;;
70967;SDS011;58629;48.808;8.820;2023-05-23T09:59:36;17.65;;;12.43;;
70967;SDS011;58629;48.808;8.820;2023-05-23T10:02:05;17.60;;;12.13;;
70967;SDS011;58629;48.808;8.820;2023-05-23T10:04:35;17.33;;;12.70;;
70967;SDS011;58629;48.808;8.820;2023-05-23T10:07:04;17.45;;;12.80;;
70967;SDS011;58629;48.808;8.820;2023-05-23T10:09:44;17.27;;;13.02;;
70967;SDS011;58629;48.808;8.820;2023-05-23T10:14:57;17.30;;;12.63;;
70967;SDS011;58629;48.808;8.820;2023-05-23T10:19:59;18.13;;;12.48;;
70967;SDS011;58629;48.808;8.820;2023-05-23T10:22:28;17.30;;;12.43;;
70967;SDS011;58629;48.808;8.820;2023-05-23T10:24:54;17.25;;;12.52;;
70967;SDS011;58629;48.808;8.820;2023-05-23T10:27:19;16.97;;;12.40;;
70967;SDS011;58629;48.808;8.820;2023-05-23T10:29:45;18.23;;;12.70;;
70967;SDS011;58629;48.808;8.820;2023-05-23T10:32:11;17.10;;;12.38;;
70967;SDS011;58629;48.808;8.820;2023-05-23T10:34:40;17.63;;;11.65;;
70967;SDS011;58629;48.808;8.820;2023-05-23T10:40:16;18.02;;;12.32;;
70967;SDS011;58629;48.808;8.820;2023-05-23T10:42:55;17.42;;;11.75;;
70967;SDS011;58629;48.808;8.820;2023-05-23T10:45:26;17.30;;;11.23;;
70967;SDS011;58629;48.808;8.820;2023-05-23T10:47:52;14.90;;;10.80;;
70967;SDS011;58629;48.808;8.820;2023-05-23T10:52:57;16.42;;;10.68;;
70967;SDS011;58629;48.808;8.820;2023-05-23T10:55:24;14.05;;;10.82;;
70967;SDS011;58629;48.808;8.820;2023-05-23T10:58:07;15.17;;;10.67;;
70967;SDS011;58629;48.808;8.820;2023-05-23T11:00:53;14.07;;;10.18;;
70967;SDS011;58629;48.808;8.820;2023-05-23T11:04:23;13.80;;;10.10;;
70967;SDS011;58629;48.808;8.820;2023-05-23T11:09:10;13.80;;;9.75;;
70967;SDS011;58629;48.808;8.820;2023-05-23T11:14:16;11.77;;;8.30;;
70967;SDS011;58629;48.808;8.820;2023-05-23T11:16:41;12.40;;;8.40;;
70967;SDS011;58629;48.808;8.820;2023-05-23T11:27:11;11.18;;;8.45;;
70967;SDS011;58629;48.808;8.820;2023-05-23T11:29:37;13.67;;;9.60;;
70967;SDS011;58629;48.808;8.820;2023-05-23T11:32:09;10.90;;;8.65;;
70967;SDS011;58629;48.808;8.820;2023-05-23T11:34:36;12.23;;;8.85;;
70967;SDS011;58629;48.808;8.820;2023-05-23T11:37:02;10.55;;;8.30;;
70967;SDS011;58629;48.808;8.820;2023-05-23T11:39:28;9.77;;;7.85;;
70967;SDS011;58629;48.808;8.820;2023-05-23T11:42:00;9.83;;;8.20;;
70967;SDS011;58629;48.808;8.820;2023-05-23T11:44:27;10.68;;;8.10;;
70967;SDS011;58629;48.808;8.820;2023-05-23T11:46:59;9.50;;;7.55;;
70967;SDS011;58629;48.808;8.820;2023-05-23T11:49:27;7.53;;;6.35;;
70967;SDS011;58629;48.808;8.820;2023-05-23T11:51:53;9.38;;;6.50;;
70967;SDS011;58629;48.808;8.820;2023-05-23T11:54:21;7.80;;;6.30;;
70967;SDS011;58629;48.808;8.820;2023-05-23T11:56:47;9.23;;;6.88;;
70967;SDS011;58629;48.808;8.820;2023-05-23T11:59:12;8.30;;;6.50;;
70967;SDS011;58629;48.808;8.820;2023-05-23T12:01:38;6.50;;;5.57;;
70967;SDS011;58629;48.808;8.820;2023-05-23T12:04:08;5.80;;;5.10;;
70967;SDS011;58629;48.808;8.820;2023-05-23T12:06:35;5.97;;;4.60;;
70967;SDS011;58629;48.808;8.820;2023-05-23T12:09:03;6.70;;;5.35;;
70967;SDS011;58629;48.808;8.820;2023-05-23T12:11:31;6.83;;;5.63;;
70967;SDS011;58629;48.808;8.820;2023-05-23T12:13:57;10.10;;;6.05;;
70967;SDS011;58629;48.808;8.820;2023-05-23T12:16:26;7.03;;;5.82;;
70967;SDS011;58629;48.808;8.820;2023-05-23T12:18:52;7.97;;;5.68;;
70967;SDS011;58629;48.808;8.820;2023-05-23T12:21:17;6.83;;;5.37;;
70967;SDS011;58629;48.808;8.820;2023-05-23T12:23:43;6.85;;;5.68;;
70967;SDS011;58629;48.808;8.820;2023-05-23T12:26:08;6.53;;;5.57;;
70967;SDS011;58629;48.808;8.820;2023-05-23T12:28:35;6.40;;;5.70;;
70967;SDS011;58629;48.808;8.820;2023-05-23T12:33:40;6.88;;;5.88;;
70967;SDS011;58629;48.808;8.820;2023-05-23T12:36:09;8.38;;;6.05;;
70967;SDS011;58629;48.808;8.820;2023-05-23T12:38:36;7.35;;;5.55;;
70967;SDS011;58629;48.808;8.820;2023-05-23T12:43:40;6.13;;;5.50;;
70967;SDS011;58629;48.808;8.820;2023-05-23T12:46:14;7.65;;;5.15;;
70967;SDS011;58629;48.808;8.820;2023-05-23T12:48:39;6.70;;;5.13;;
70967;SDS011;58629;48.808;8.820;2023-05-23T12:51:05;5.00;;;4.50;;
70967;SDS011;58629;48.808;8.820;2023-05-23T12:53:30;5.50;;;4.47;;
70967;SDS011;58629;48.808;8.820;2023-05-23T12:55:55;4.50;;;4.10;;
70967;SDS011;58629;48.808;8.820;2023-05-23T12:58:21;4.37;;;3.97;;
70967;SDS011;58629;48.808;8.820;2023-05-23T13:00:46;6.17;;;4.40;;
70967;SDS011;58629;48.808;8.820;2023-05-23T13:03:11;4.87;;;4.40;;
70967;SDS011;58629;48.808;8.820;2023-05-23T13:05:37;5.43;;;4.60;;
70967;SDS011;58629;48.808;8.820;2023-05-23T13:08:03;5.95;;;4.80;;
70967;SDS011;58629;48.808;8.820;2023-05-23T13:11:10;6.32;;;4.90;;
70967;SDS011;58629;48.808;8.820;2023-05-23T13:13:29;6.05;;;4.63;;
70967;SDS011;58629;48.808;8.820;2023-05-23T13:15:56;6.15;;;4.80;;
70967;SDS011;58629;48.808;8.820;2023-05-23T13:18:21;5.73;;;4.80;;
70967;SDS011;58629;48.808;8.820;2023-05-23T13:20:46;6.67;;;4.93;;
70967;SDS011;58629;48.808;8.820;2023-05-23T13:23:12;5.13;;;4.43;;
70967;SDS011;58629;48.808;8.820;2023-05-23T13:25:37;5.75;;;4.50;;
70967;SDS011;58629;48.808;8.820;2023-05-23T13:28:03;5.73;;;4.70;;
70967;SDS011;58629;48.808;8.820;2023-05-23T13:30:28;5.87;;;4.70;;
70967;SDS011;58629;48.808;8.820;2023-05-23T13:32:53;6.53;;;4.90;;
70967;SDS011;58629;48.808;8.820;2023-05-23T13:35:19;6.65;;;4.90;;
70967;SDS011;58629;48.808;8.820;2023-05-23T13:37:44;5.77;;;4.50;;
70967;SDS011;58629;48.808;8.820;2023-05-23T13:40:16;6.83;;;4.83;;
70967;SDS011;58629;48.808;8.820;2023-05-23T13:42:43;6.75;;;4.78;;
70967;SDS011;58629;48.808;8.820;2023-05-23T13:45:09;5.23;;;4.47;;
70967;SDS011;58629;48.808;8.820;2023-05-23T13:47:34;5.80;;;4.85;;
70967;SDS011;58629;48.808;8.820;2023-05-23T13:50:01;5.85;;;4.40;;
70967;SDS011;58629;48.808;8.820;2023-05-23T13:52:30;6.28;;;4.13;;
70967;SDS011;58629;48.808;8.820;2023-05-23T13:54:55;5.80;;;4.83;;
70967;SDS011;58629;48.808;8.820;2023-05-23T13:57:20;5.63;;;4.33;;
70967;SDS011;58629;48.808;8.820;2023-05-23T13:59:46;6.80;;;4.50;;
70967;SDS011;58629;48.808;8.820;2023-05-23T14:02:11;5.37;;;4.50;;
70967;SDS011;58629;48.808;8.820;2023-05-23T14:04:36;7.23;;;5.20;;
70967;SDS011;58629;48.808;8.820;2023-05-23T14:07:02;6.17;;;4.37;;
70967;SDS011;58629;48.808;8.820;2023-05-23T14:09:27;5.63;;;4.70;;
70967;SDS011;58629;48.808;8.820;2023-05-23T14:11:53;6.00;;;4.93;;
70967;SDS011;58629;48.808;8.820;2023-05-23T14:14:18;7.27;;;5.40;;
70967;SDS011;58629;48.808;8.820;2023-05-23T14:16:43;5.37;;;4.60;;
70967;SDS011;58629;48.808;8.820;2023-05-23T14:19:09;6.57;;;4.63;;
70967;SDS011;58629;48.808;8.820;2023-05-23T14:21:34;6.47;;;4.83;;
70967;SDS011;58629;48.808;8.820;2023-05-23T14:24:00;5.47;;;4.80;;
70967;SDS011;58629;48.808;8.820;2023-05-23T14:26:26;6.00;;;5.05;;
70967;SDS011;58629;48.808;8.820;2023-05-23T14:28:51;5.73;;;4.37;;
70967;SDS011;58629;48.808;8.820;2023-05-23T14:31:17;5.97;;;4.40;;
70967;SDS011;58629;48.808;8.820;2023-05-23T14:33:42;7.07;;;4.87;;
70967;SDS011;58629;48.808;8.820;2023-05-23T14:36:07;5.50;;;4.73;;
70967;SDS011;58629;48.808;8.820;2023-05-23T14:38:33;5.15;;;4.50;;
70967;SDS011;58629;48.808;8.820;2023-05-23T14:40:58;5.95;;;4.95;;
70967;SDS011;58629;48.808;8.820;2023-05-23T14:43:23;6.57;;;5.38;;
70967;SDS011;58629;48.808;8.820;2023-05-23T14:45:49;5.10;;;4.60;;
70967;SDS011;58629;48.808;8.820;2023-05-23T14:48:14;6.60;;;4.40;;
70967;SDS011;58629;48.808;8.820;2023-05-23T14:50:39;5.00;;;4.33;;
70967;SDS011;58629;48.808;8.820;2023-05-23T14:53:05;5.23;;;4.07;;
70967;SDS011;58629;48.808;8.820;2023-05-23T14:55:30;5.57;;;4.20;;
70967;SDS011;58629;48.808;8.820;2023-05-23T14:57:55;4.97;;;4.03;;
70967;SDS011;58629;48.808;8.820;2023-05-23T15:00:21;5.20;;;4.43;;